Terminal Aerodrome Forecast
Issued by NWS Houston/Galveston, TX

Home | Current Version | Previous Version | Text Only | Print | Product List | Glossary On
Versions: 1 2 3 4 5 6 7 8 9 10 11 12 13 14 15 16 17 18 19 20 21
000
FTUS44 KHGX 232330
TAFCLL
TAF
KCLL 232330Z 2400/2424 17011KT P6SM VCTS FEW035CB FEW070 BKN250
     FM240300 19006KT P6SM SCT180 BKN250
     FM241300 21009KT P6SM FEW025 SCT250
     FM241800 18010KT P6SM FEW060=

USA.gov is the U.S. government's official web portal to all federal, state and local government web resources and services.